Terminal Aerodrome Forecast
Issued by NWS

Current Version | Previous Version | Text Only | Print | Product List | Glossary On
Versions: 1 2 3 4 5 6 7 8 9 10 11 12 13 14 15 16 17 18 19 20 21 22 23 24 25 26 27
000
FTUS44 KLZK 240009 AAA
TAFADF
TAF AMD
KADF 240009Z 2400/2424 04005KT P6SM SCT009 BKN035 OVC080
      TEMPO 2400/2403 OVC009
     FM240300 06005KT 6SM BR VCSH SCT008 OVC030
     FM240600 07005KT 5SM -DZ BR BKN005 OVC025
     FM240900 09005KT 3SM -RA BR OVC005
      TEMPO 2409/2412 1SM -DZ BR OVC002=

USA.gov is the U.S. government's official web portal to all federal, state and local government web resources and services.